Cokeville, WY (83114)

9:49 AM MDT on October 23, 2014 (GMT -0600)
Cokeville | Change Station
CLOSE
Current Station
Personal Weather Station
Location: Cokeville, WY
Elevation: 6207 ft
Nearby Weather Stations

Elev 6207 ft 42.09 °N, 110.96 °W | Updated 9 minutes ago

Partly Cloudy
Partly Cloudy
35.7 °F
Feels Like 36 °F
N
0.0
Wind Variable Wind from East
Gusts 1.0 mph

Today
High -- | Low -- °F
--% Chance of Precip.
Yesterday
High -- | Low -- °F
Precip. -- in
7:46 AM 6:30 PM
Waning Crescent, 0% visible
Pressure 30.20 in
Visibility 10.0 miles
Clouds Clear
Windchill 36 °F
Dew Point 27 °F
Humidity 71%
Rainfall 0.00 in
Snow Depth 1 in , 1 in
UV 1 out of 12
Pollen 3.00 out of 12
Air Quality Not available.
Flu Activity Sporadic
METAR KAFO 231535Z AUTO 00000KT 10SM CLR 02/M02 A3020 RMK AO2

More Conditions Fewer Conditions

Pressure 30.20 in
Visibility 10.0 miles
Clouds Clear
Windchill 36 °F
Dew Point 27 °F
Humidity 71%
Rainfall 0.00 in
Snow Depth 1 in , 1 in
UV 1 out of 12
Pollen 3.00 out of 12
Air Quality Not available.
Flu Activity Sporadic
METAR KAFO 231535Z AUTO 00000KT 10SM CLR 02/M02 A3020 RMK AO2

More Conditions Fewer Conditions

10-Day Weather Forecast

Almanac

Astronomy

Oct. 23, 2014 Rise Set
Actual Time 7:46 AM MDT 6:30 PM MDT
Civil Twilight 7:18 AM MDT 6:58 PM MDT
Nautical Twilight 6:45 AM MDT 7:31 PM MDT
Astronomical Twilight 6:12 AM MDT 8:03 PM MDT
Moon 7:29 AM MDT 6:33 PM MDT
Length of Visible Light 11h 40m
Length of Day
10h 43m
Tomorrow will be 2m 40s shorter.
Waning Crescent, 0% of the Moon is Illuminated
Today
Waning Crescent
Oct 23
New
Oct 30
First Quarter
Nov 6
Full
Nov 14
Last Quarter

Today's Extremes

State Highs State Lows

Community

WunderPhotos

Upload Photos

1,764,288 photos uploaded!

WunderBlogs® & News

Nearby

Snow Depth

Station Depth Elevation
Kelley R.S. 1 in 8180 ft
Salt River Summit 1 in 7600 ft
Cottonwood Creek 0 in 7600 ft
Hams Fork 0 in 7840 ft
Spring Creek Divide 1 in 9000 ft

Earthquake Activity

City Distance Mag. Time & Date
No recent earthquake activity has been reported nearby.
Minimum magnitude displayed is 2.5.

Coastal Water Temperatures

Place Temperature
No Stations Reporting

Nearby Weather Stations